<?xml version="1.0" encoding="UTF-8" standalone="no" ?>
<gpx xmlns="http://www.topografix.com/GPX/1/1" xmlns:xsi="http://www.w3.org/2001/XMLSchema-instance" xsi:schemaLocation="http://www.topografix.com/GPX/1/1 http://www.topografix.com/GPX/1/1/gpx.xsd" version="1.1" creator="VisuGPX - https://www.visugpx.com">
  <metadata>
    <name>Cuq Crémail en raquettes</name>
    <desc><![CDATA[Ascension du Cuq Crémail depuis Germs sur l'Oussouet.]]></desc>
  </metadata>
  <trk>
    <name><![CDATA[Cuq Crémail en raquettes depuis Germs sur l'Oussouet.]]></name>
    <trkseg>
      <trkpt lat="43.0427" lon="0.04488">
        <ele>998</ele>
        <time>2019-02-09T09:20:30+01:00</time>
      </trkpt>
      <trkpt lat="43.04256" lon="0.04462">
        <ele>1004</ele>
        <time>2019-02-09T09:20:54+01:00</time>
      </trkpt>
      <trkpt lat="43.04239" lon="0.04442">
        <ele>1005</ele>
        <time>2019-02-09T09:21:12+01:00</time>
      </trkpt>
      <trkpt lat="43.04221" lon="0.04423">
        <ele>1008</ele>
        <time>2019-02-09T09:21:29+01:00</time>
      </trkpt>
      <trkpt lat="43.04204" lon="0.04402">
        <ele>1013</ele>
        <time>2019-02-09T09:21:46+01:00</time>
      </trkpt>
      <trkpt lat="43.04187" lon="0.0438">
        <ele>1018</ele>
        <time>2019-02-09T09:22:04+01:00</time>
      </trkpt>
      <trkpt lat="43.04171" lon="0.04357">
        <ele>1019</ele>
        <time>2019-02-09T09:22:21+01:00</time>
      </trkpt>
      <trkpt lat="43.0416" lon="0.0433">
        <ele>1022</ele>
        <time>2019-02-09T09:22:38+01:00</time>
      </trkpt>
      <trkpt lat="43.04145" lon="0.04306">
        <ele>1023</ele>
        <time>2019-02-09T09:22:56+01:00</time>
      </trkpt>
      <trkpt lat="43.04127" lon="0.04285">
        <ele>1026</ele>
        <time>2019-02-09T09:23:14+01:00</time>
      </trkpt>
      <trkpt lat="43.04107" lon="0.0427">
        <ele>1027</ele>
        <time>2019-02-09T09:23:33+01:00</time>
      </trkpt>
      <trkpt lat="43.04087" lon="0.04255">
        <ele>1028</ele>
        <time>2019-02-09T09:23:52+01:00</time>
      </trkpt>
      <trkpt lat="43.04068" lon="0.04237">
        <ele>1032</ele>
        <time>2019-02-09T09:24:23+01:00</time>
      </trkpt>
      <trkpt lat="43.04049" lon="0.0422">
        <ele>1033</ele>
        <time>2019-02-09T09:24:41+01:00</time>
      </trkpt>
      <trkpt lat="43.04031" lon="0.04201">
        <ele>1035</ele>
        <time>2019-02-09T09:24:58+01:00</time>
      </trkpt>
      <trkpt lat="43.04014" lon="0.0418">
        <ele>1037</ele>
        <time>2019-02-09T09:25:16+01:00</time>
      </trkpt>
      <trkpt lat="43.03998" lon="0.04157">
        <ele>1039</ele>
        <time>2019-02-09T09:25:33+01:00</time>
      </trkpt>
      <trkpt lat="43.03989" lon="0.04129">
        <ele>1042</ele>
        <time>2019-02-09T09:25:51+01:00</time>
      </trkpt>
      <trkpt lat="43.0398" lon="0.04158">
        <ele>1046</ele>
        <time>2019-02-09T09:26:34+01:00</time>
      </trkpt>
      <trkpt lat="43.03982" lon="0.04188">
        <ele>1049</ele>
        <time>2019-02-09T09:26:51+01:00</time>
      </trkpt>
      <trkpt lat="43.03988" lon="0.04219">
        <ele>1052</ele>
        <time>2019-02-09T09:27:08+01:00</time>
      </trkpt>
      <trkpt lat="43.03995" lon="0.0425">
        <ele>1053</ele>
        <time>2019-02-09T09:27:25+01:00</time>
      </trkpt>
      <trkpt lat="43.04" lon="0.0428">
        <ele>1054</ele>
        <time>2019-02-09T09:27:42+01:00</time>
      </trkpt>
      <trkpt lat="43.04006" lon="0.04309">
        <ele>1057</ele>
        <time>2019-02-09T09:27:59+01:00</time>
      </trkpt>
      <trkpt lat="43.04014" lon="0.04339">
        <ele>1059</ele>
        <time>2019-02-09T09:28:17+01:00</time>
      </trkpt>
      <trkpt lat="43.04022" lon="0.04368">
        <ele>1061</ele>
        <time>2019-02-09T09:28:41+01:00</time>
      </trkpt>
      <trkpt lat="43.04027" lon="0.04399">
        <ele>1063</ele>
        <time>2019-02-09T09:28:58+01:00</time>
      </trkpt>
      <trkpt lat="43.04033" lon="0.04429">
        <ele>1065</ele>
        <time>2019-02-09T09:29:15+01:00</time>
      </trkpt>
      <trkpt lat="43.04043" lon="0.04457">
        <ele>1067</ele>
        <time>2019-02-09T09:29:32+01:00</time>
      </trkpt>
      <trkpt lat="43.04047" lon="0.04488">
        <ele>1069</ele>
        <time>2019-02-09T09:29:50+01:00</time>
      </trkpt>
      <trkpt lat="43.04044" lon="0.0452">
        <ele>1074</ele>
        <time>2019-02-09T09:30:09+01:00</time>
      </trkpt>
      <trkpt lat="43.0404" lon="0.04551">
        <ele>1077</ele>
        <time>2019-02-09T09:30:28+01:00</time>
      </trkpt>
      <trkpt lat="43.04037" lon="0.04583">
        <ele>1080</ele>
        <time>2019-02-09T09:30:47+01:00</time>
      </trkpt>
      <trkpt lat="43.04018" lon="0.04565">
        <ele>1085</ele>
        <time>2019-02-09T09:32:01+01:00</time>
      </trkpt>
      <trkpt lat="43.04007" lon="0.04537">
        <ele>1090</ele>
        <time>2019-02-09T09:32:20+01:00</time>
      </trkpt>
      <trkpt lat="43.03994" lon="0.04512">
        <ele>1090</ele>
        <time>2019-02-09T09:32:37+01:00</time>
      </trkpt>
      <trkpt lat="43.03979" lon="0.04489">
        <ele>1092</ele>
        <time>2019-02-09T09:32:56+01:00</time>
      </trkpt>
      <trkpt lat="43.0396" lon="0.04469">
        <ele>1095</ele>
        <time>2019-02-09T09:33:15+01:00</time>
      </trkpt>
      <trkpt lat="43.0394" lon="0.04455">
        <ele>1097</ele>
        <time>2019-02-09T09:33:33+01:00</time>
      </trkpt>
      <trkpt lat="43.0392" lon="0.04441">
        <ele>1098</ele>
        <time>2019-02-09T09:33:53+01:00</time>
      </trkpt>
      <trkpt lat="43.03898" lon="0.04429">
        <ele>1102</ele>
        <time>2019-02-09T09:34:13+01:00</time>
      </trkpt>
      <trkpt lat="43.03877" lon="0.04417">
        <ele>1105</ele>
        <time>2019-02-09T09:34:32+01:00</time>
      </trkpt>
      <trkpt lat="43.03857" lon="0.04401">
        <ele>1111</ele>
        <time>2019-02-09T09:34:57+01:00</time>
      </trkpt>
      <trkpt lat="43.03839" lon="0.04381">
        <ele>1111</ele>
        <time>2019-02-09T09:35:18+01:00</time>
      </trkpt>
      <trkpt lat="43.03821" lon="0.04361">
        <ele>1114</ele>
        <time>2019-02-09T09:35:37+01:00</time>
      </trkpt>
      <trkpt lat="43.03801" lon="0.04342">
        <ele>1117</ele>
        <time>2019-02-09T09:35:57+01:00</time>
      </trkpt>
      <trkpt lat="43.0378" lon="0.04332">
        <ele>1122</ele>
        <time>2019-02-09T09:36:17+01:00</time>
      </trkpt>
      <trkpt lat="43.03763" lon="0.0431">
        <ele>1124</ele>
        <time>2019-02-09T09:36:38+01:00</time>
      </trkpt>
      <trkpt lat="43.03745" lon="0.04292">
        <ele>1128</ele>
        <time>2019-02-09T09:37:05+01:00</time>
      </trkpt>
      <trkpt lat="43.0373" lon="0.04269">
        <ele>1129</ele>
        <time>2019-02-09T09:37:33+01:00</time>
      </trkpt>
      <trkpt lat="43.03712" lon="0.04251">
        <ele>1133</ele>
        <time>2019-02-09T09:37:54+01:00</time>
      </trkpt>
      <trkpt lat="43.03693" lon="0.04234">
        <ele>1132</ele>
        <time>2019-02-09T09:38:13+01:00</time>
      </trkpt>
      <trkpt lat="43.03674" lon="0.04217">
        <ele>1133</ele>
        <time>2019-02-09T09:38:34+01:00</time>
      </trkpt>
      <trkpt lat="43.03653" lon="0.04203">
        <ele>1135</ele>
        <time>2019-02-09T09:39:01+01:00</time>
      </trkpt>
      <trkpt lat="43.03631" lon="0.0419">
        <ele>1139</ele>
        <time>2019-02-09T09:39:37+01:00</time>
      </trkpt>
      <trkpt lat="43.03608" lon="0.04183">
        <ele>1140</ele>
        <time>2019-02-09T09:39:56+01:00</time>
      </trkpt>
      <trkpt lat="43.03586" lon="0.04185">
        <ele>1142</ele>
        <time>2019-02-09T09:40:16+01:00</time>
      </trkpt>
      <trkpt lat="43.03564" lon="0.04193">
        <ele>1146</ele>
        <time>2019-02-09T09:40:46+01:00</time>
      </trkpt>
      <trkpt lat="43.03541" lon="0.04193">
        <ele>1147</ele>
        <time>2019-02-09T09:41:09+01:00</time>
      </trkpt>
      <trkpt lat="43.03517" lon="0.04199">
        <ele>1149</ele>
        <time>2019-02-09T09:41:29+01:00</time>
      </trkpt>
      <trkpt lat="43.03494" lon="0.04205">
        <ele>1150</ele>
        <time>2019-02-09T09:41:49+01:00</time>
      </trkpt>
      <trkpt lat="43.03472" lon="0.04214">
        <ele>1151</ele>
        <time>2019-02-09T09:42:11+01:00</time>
      </trkpt>
      <trkpt lat="43.03449" lon="0.0422">
        <ele>1150</ele>
        <time>2019-02-09T09:42:33+01:00</time>
      </trkpt>
      <trkpt lat="43.03427" lon="0.0423">
        <ele>1149</ele>
        <time>2019-02-09T09:42:55+01:00</time>
      </trkpt>
      <trkpt lat="43.03406" lon="0.04242">
        <ele>1149</ele>
        <time>2019-02-09T09:43:14+01:00</time>
      </trkpt>
      <trkpt lat="43.03386" lon="0.04256">
        <ele>1151</ele>
        <time>2019-02-09T09:43:43+01:00</time>
      </trkpt>
      <trkpt lat="43.03366" lon="0.0427">
        <ele>1155</ele>
        <time>2019-02-09T09:44:03+01:00</time>
      </trkpt>
      <trkpt lat="43.03345" lon="0.04282">
        <ele>1161</ele>
        <time>2019-02-09T09:44:24+01:00</time>
      </trkpt>
      <trkpt lat="43.03327" lon="0.04301">
        <ele>1162</ele>
        <time>2019-02-09T09:44:44+01:00</time>
      </trkpt>
      <trkpt lat="43.03312" lon="0.04325">
        <ele>1164</ele>
        <time>2019-02-09T09:45:08+01:00</time>
      </trkpt>
      <trkpt lat="43.03291" lon="0.04334">
        <ele>1166</ele>
        <time>2019-02-09T09:45:30+01:00</time>
      </trkpt>
      <trkpt lat="43.0327" lon="0.04347">
        <ele>1171</ele>
        <time>2019-02-09T09:46:04+01:00</time>
      </trkpt>
      <trkpt lat="43.03248" lon="0.04356">
        <ele>1175</ele>
        <time>2019-02-09T09:46:55+01:00</time>
      </trkpt>
      <trkpt lat="43.03229" lon="0.04373">
        <ele>1176</ele>
        <time>2019-02-09T09:47:19+01:00</time>
      </trkpt>
      <trkpt lat="43.03217" lon="0.044">
        <ele>1179</ele>
        <time>2019-02-09T09:47:45+01:00</time>
      </trkpt>
      <trkpt lat="43.03205" lon="0.04427">
        <ele>1181</ele>
        <time>2019-02-09T09:48:05+01:00</time>
      </trkpt>
      <trkpt lat="43.03189" lon="0.04448">
        <ele>1185</ele>
        <time>2019-02-09T09:48:31+01:00</time>
      </trkpt>
      <trkpt lat="43.03169" lon="0.04466">
        <ele>1185</ele>
        <time>2019-02-09T09:48:49+01:00</time>
      </trkpt>
      <trkpt lat="43.03146" lon="0.04466">
        <ele>1184</ele>
        <time>2019-02-09T09:49:11+01:00</time>
      </trkpt>
      <trkpt lat="43.03134" lon="0.04438">
        <ele>1181</ele>
        <time>2019-02-09T09:49:33+01:00</time>
      </trkpt>
      <trkpt lat="43.03143" lon="0.04409">
        <ele>1185</ele>
        <time>2019-02-09T09:49:57+01:00</time>
      </trkpt>
      <trkpt lat="43.03144" lon="0.04377">
        <ele>1190</ele>
        <time>2019-02-09T09:50:20+01:00</time>
      </trkpt>
      <trkpt lat="43.03144" lon="0.04345">
        <ele>1185</ele>
        <time>2019-02-09T09:50:54+01:00</time>
      </trkpt>
      <trkpt lat="43.03132" lon="0.04318">
        <ele>1192</ele>
        <time>2019-02-09T09:51:21+01:00</time>
      </trkpt>
      <trkpt lat="43.03119" lon="0.04291">
        <ele>1200</ele>
        <time>2019-02-09T09:51:44+01:00</time>
      </trkpt>
      <trkpt lat="43.03113" lon="0.04261">
        <ele>1199</ele>
        <time>2019-02-09T09:52:08+01:00</time>
      </trkpt>
      <trkpt lat="43.031" lon="0.04235">
        <ele>1198</ele>
        <time>2019-02-09T09:52:41+01:00</time>
      </trkpt>
      <trkpt lat="43.03083" lon="0.04214">
        <ele>1206</ele>
        <time>2019-02-09T09:56:34+01:00</time>
      </trkpt>
      <trkpt lat="43.03066" lon="0.04194">
        <ele>1191</ele>
        <time>2019-02-09T09:57:10+01:00</time>
      </trkpt>
      <trkpt lat="43.03046" lon="0.0418">
        <ele>1200</ele>
        <time>2019-02-09T09:57:47+01:00</time>
      </trkpt>
      <trkpt lat="43.03024" lon="0.04169">
        <ele>1202</ele>
        <time>2019-02-09T09:58:20+01:00</time>
      </trkpt>
      <trkpt lat="43.03" lon="0.04165">
        <ele>1203</ele>
        <time>2019-02-09T09:58:47+01:00</time>
      </trkpt>
      <trkpt lat="43.03001" lon="0.04133">
        <ele>1207</ele>
        <time>2019-02-09T09:59:19+01:00</time>
      </trkpt>
      <trkpt lat="43.03011" lon="0.04105">
        <ele>1209</ele>
        <time>2019-02-09T09:59:39+01:00</time>
      </trkpt>
      <trkpt lat="43.03026" lon="0.04081">
        <ele>1210</ele>
        <time>2019-02-09T10:00:33+01:00</time>
      </trkpt>
      <trkpt lat="43.03041" lon="0.04059">
        <ele>1212</ele>
        <time>2019-02-09T10:01:00+01:00</time>
      </trkpt>
      <trkpt lat="43.03052" lon="0.04032">
        <ele>1215</ele>
        <time>2019-02-09T10:01:25+01:00</time>
      </trkpt>
      <trkpt lat="43.03068" lon="0.04009">
        <ele>1213</ele>
        <time>2019-02-09T10:01:51+01:00</time>
      </trkpt>
      <trkpt lat="43.03079" lon="0.03982">
        <ele>1210</ele>
        <time>2019-02-09T10:02:16+01:00</time>
      </trkpt>
      <trkpt lat="43.03082" lon="0.03951">
        <ele>1207</ele>
        <time>2019-02-09T10:02:39+01:00</time>
      </trkpt>
      <trkpt lat="43.03078" lon="0.0392">
        <ele>1209</ele>
        <time>2019-02-09T10:03:05+01:00</time>
      </trkpt>
      <trkpt lat="43.03075" lon="0.03888">
        <ele>1212</ele>
        <time>2019-02-09T10:03:27+01:00</time>
      </trkpt>
      <trkpt lat="43.03087" lon="0.03861">
        <ele>1212</ele>
        <time>2019-02-09T10:03:50+01:00</time>
      </trkpt>
      <trkpt lat="43.03087" lon="0.03829">
        <ele>1206</ele>
        <time>2019-02-09T10:04:13+01:00</time>
      </trkpt>
      <trkpt lat="43.03079" lon="0.038">
        <ele>1206</ele>
        <time>2019-02-09T10:04:39+01:00</time>
      </trkpt>
      <trkpt lat="43.03069" lon="0.03771">
        <ele>1207</ele>
        <time>2019-02-09T10:05:08+01:00</time>
      </trkpt>
      <trkpt lat="43.0306" lon="0.03742">
        <ele>1211</ele>
        <time>2019-02-09T10:05:35+01:00</time>
      </trkpt>
      <trkpt lat="43.03056" lon="0.0371">
        <ele>1212</ele>
        <time>2019-02-09T10:06:07+01:00</time>
      </trkpt>
      <trkpt lat="43.03049" lon="0.03681">
        <ele>1215</ele>
        <time>2019-02-09T10:06:36+01:00</time>
      </trkpt>
      <trkpt lat="43.03048" lon="0.03649">
        <ele>1214</ele>
        <time>2019-02-09T10:07:00+01:00</time>
      </trkpt>
      <trkpt lat="43.03041" lon="0.0362">
        <ele>1212</ele>
        <time>2019-02-09T10:07:23+01:00</time>
      </trkpt>
      <trkpt lat="43.03033" lon="0.03591">
        <ele>1214</ele>
        <time>2019-02-09T10:07:49+01:00</time>
      </trkpt>
      <trkpt lat="43.03036" lon="0.0356">
        <ele>1225</ele>
        <time>2019-02-09T10:08:27+01:00</time>
      </trkpt>
      <trkpt lat="43.03035" lon="0.03529">
        <ele>1238</ele>
        <time>2019-02-09T10:08:55+01:00</time>
      </trkpt>
      <trkpt lat="43.03053" lon="0.03509">
        <ele>1240</ele>
        <time>2019-02-09T10:09:30+01:00</time>
      </trkpt>
      <trkpt lat="43.03074" lon="0.03496">
        <ele>1239</ele>
        <time>2019-02-09T10:10:58+01:00</time>
      </trkpt>
      <trkpt lat="43.03076" lon="0.03464">
        <ele>1246</ele>
        <time>2019-02-09T10:11:33+01:00</time>
      </trkpt>
      <trkpt lat="43.03074" lon="0.03433">
        <ele>1242</ele>
        <time>2019-02-09T10:12:18+01:00</time>
      </trkpt>
      <trkpt lat="43.03064" lon="0.03406">
        <ele>1248</ele>
        <time>2019-02-09T10:12:45+01:00</time>
      </trkpt>
      <trkpt lat="43.03054" lon="0.03377">
        <ele>1243</ele>
        <time>2019-02-09T10:13:13+01:00</time>
      </trkpt>
      <trkpt lat="43.03045" lon="0.03347">
        <ele>1244</ele>
        <time>2019-02-09T10:13:36+01:00</time>
      </trkpt>
      <trkpt lat="43.03041" lon="0.03316">
        <ele>1252</ele>
        <time>2019-02-09T10:14:05+01:00</time>
      </trkpt>
      <trkpt lat="43.03047" lon="0.03286">
        <ele>1258</ele>
        <time>2019-02-09T10:14:39+01:00</time>
      </trkpt>
      <trkpt lat="43.03049" lon="0.03255">
        <ele>1254</ele>
        <time>2019-02-09T10:15:01+01:00</time>
      </trkpt>
      <trkpt lat="43.03048" lon="0.03224">
        <ele>1256</ele>
        <time>2019-02-09T10:15:21+01:00</time>
      </trkpt>
      <trkpt lat="43.03056" lon="0.03194">
        <ele>1257</ele>
        <time>2019-02-09T10:15:43+01:00</time>
      </trkpt>
      <trkpt lat="43.03075" lon="0.03175">
        <ele>1260</ele>
        <time>2019-02-09T10:16:18+01:00</time>
      </trkpt>
      <trkpt lat="43.03092" lon="0.03154">
        <ele>1261</ele>
        <time>2019-02-09T10:16:43+01:00</time>
      </trkpt>
      <trkpt lat="43.03109" lon="0.03132">
        <ele>1265</ele>
        <time>2019-02-09T10:17:07+01:00</time>
      </trkpt>
      <trkpt lat="43.03123" lon="0.03106">
        <ele>1271</ele>
        <time>2019-02-09T10:17:51+01:00</time>
      </trkpt>
      <trkpt lat="43.03116" lon="0.03076">
        <ele>1281</ele>
        <time>2019-02-09T10:18:58+01:00</time>
      </trkpt>
      <trkpt lat="43.03096" lon="0.03061">
        <ele>1286</ele>
        <time>2019-02-09T10:23:20+01:00</time>
      </trkpt>
      <trkpt lat="43.03074" lon="0.03055">
        <ele>1286</ele>
        <time>2019-02-09T10:23:46+01:00</time>
      </trkpt>
      <trkpt lat="43.03051" lon="0.03053">
        <ele>1291</ele>
        <time>2019-02-09T10:24:10+01:00</time>
      </trkpt>
      <trkpt lat="43.03028" lon="0.03057">
        <ele>1297</ele>
        <time>2019-02-09T10:24:41+01:00</time>
      </trkpt>
      <trkpt lat="43.03005" lon="0.03058">
        <ele>1305</ele>
        <time>2019-02-09T10:25:13+01:00</time>
      </trkpt>
      <trkpt lat="43.02983" lon="0.03061">
        <ele>1316</ele>
        <time>2019-02-09T10:26:29+01:00</time>
      </trkpt>
      <trkpt lat="43.0296" lon="0.03055">
        <ele>1326</ele>
        <time>2019-02-09T10:27:07+01:00</time>
      </trkpt>
      <trkpt lat="43.02937" lon="0.03048">
        <ele>1330</ele>
        <time>2019-02-09T10:27:42+01:00</time>
      </trkpt>
      <trkpt lat="43.02916" lon="0.03038">
        <ele>1333</ele>
        <time>2019-02-09T10:28:24+01:00</time>
      </trkpt>
      <trkpt lat="43.02894" lon="0.03028">
        <ele>1341</ele>
        <time>2019-02-09T10:28:53+01:00</time>
      </trkpt>
      <trkpt lat="43.02873" lon="0.03013">
        <ele>1343</ele>
        <time>2019-02-09T10:29:19+01:00</time>
      </trkpt>
      <trkpt lat="43.02877" lon="0.03044">
        <ele>1344</ele>
        <time>2019-02-09T10:30:06+01:00</time>
      </trkpt>
      <trkpt lat="43.02882" lon="0.03076">
        <ele>1349</ele>
        <time>2019-02-09T10:30:33+01:00</time>
      </trkpt>
      <trkpt lat="43.02893" lon="0.03102">
        <ele>1351</ele>
        <time>2019-02-09T10:31:16+01:00</time>
      </trkpt>
      <trkpt lat="43.02891" lon="0.03133">
        <ele>1354</ele>
        <time>2019-02-09T10:31:38+01:00</time>
      </trkpt>
      <trkpt lat="43.02898" lon="0.03164">
        <ele>1362</ele>
        <time>2019-02-09T10:32:09+01:00</time>
      </trkpt>
      <trkpt lat="43.02898" lon="0.03195">
        <ele>1366</ele>
        <time>2019-02-09T10:32:32+01:00</time>
      </trkpt>
      <trkpt lat="43.02899" lon="0.03226">
        <ele>1373</ele>
        <time>2019-02-09T10:32:56+01:00</time>
      </trkpt>
      <trkpt lat="43.02899" lon="0.03257">
        <ele>1374</ele>
        <time>2019-02-09T10:33:19+01:00</time>
      </trkpt>
      <trkpt lat="43.02894" lon="0.03288">
        <ele>1375</ele>
        <time>2019-02-09T10:33:44+01:00</time>
      </trkpt>
      <trkpt lat="43.02882" lon="0.03261">
        <ele>1379</ele>
        <time>2019-02-09T10:34:29+01:00</time>
      </trkpt>
      <trkpt lat="43.0288" lon="0.0323">
        <ele>1375</ele>
        <time>2019-02-09T10:35:27+01:00</time>
      </trkpt>
      <trkpt lat="43.0287" lon="0.03201">
        <ele>1370</ele>
        <time>2019-02-09T10:35:55+01:00</time>
      </trkpt>
      <trkpt lat="43.02856" lon="0.03177">
        <ele>1371</ele>
        <time>2019-02-09T10:36:20+01:00</time>
      </trkpt>
      <trkpt lat="43.02844" lon="0.03151">
        <ele>1373</ele>
        <time>2019-02-09T10:36:43+01:00</time>
      </trkpt>
      <trkpt lat="43.02829" lon="0.03127">
        <ele>1384</ele>
        <time>2019-02-09T10:37:08+01:00</time>
      </trkpt>
      <trkpt lat="43.02816" lon="0.03101">
        <ele>1393</ele>
        <time>2019-02-09T10:37:30+01:00</time>
      </trkpt>
      <trkpt lat="43.02798" lon="0.03082">
        <ele>1400</ele>
        <time>2019-02-09T10:38:00+01:00</time>
      </trkpt>
      <trkpt lat="43.02777" lon="0.0307">
        <ele>1398</ele>
        <time>2019-02-09T10:38:35+01:00</time>
      </trkpt>
      <trkpt lat="43.02755" lon="0.03072">
        <ele>1399</ele>
        <time>2019-02-09T10:39:40+01:00</time>
      </trkpt>
      <trkpt lat="43.02751" lon="0.03103">
        <ele>1403</ele>
        <time>2019-02-09T10:40:51+01:00</time>
      </trkpt>
      <trkpt lat="43.02749" lon="0.03134">
        <ele>1412</ele>
        <time>2019-02-09T10:41:26+01:00</time>
      </trkpt>
      <trkpt lat="43.02749" lon="0.03165">
        <ele>1417</ele>
        <time>2019-02-09T10:41:56+01:00</time>
      </trkpt>
      <trkpt lat="43.02747" lon="0.03196">
        <ele>1419</ele>
        <time>2019-02-09T10:43:02+01:00</time>
      </trkpt>
      <trkpt lat="43.02738" lon="0.03226">
        <ele>1426</ele>
        <time>2019-02-09T10:43:48+01:00</time>
      </trkpt>
      <trkpt lat="43.02718" lon="0.03241">
        <ele>1431</ele>
        <time>2019-02-09T10:44:15+01:00</time>
      </trkpt>
      <trkpt lat="43.02702" lon="0.03262">
        <ele>1432</ele>
        <time>2019-02-09T10:44:57+01:00</time>
      </trkpt>
      <trkpt lat="43.02687" lon="0.03286">
        <ele>1434</ele>
        <time>2019-02-09T10:45:20+01:00</time>
      </trkpt>
      <trkpt lat="43.02683" lon="0.03316">
        <ele>1440</ele>
        <time>2019-02-09T10:45:46+01:00</time>
      </trkpt>
      <trkpt lat="43.02676" lon="0.03347">
        <ele>1445</ele>
        <time>2019-02-09T10:46:15+01:00</time>
      </trkpt>
      <trkpt lat="43.02669" lon="0.03376">
        <ele>1452</ele>
        <time>2019-02-09T10:47:22+01:00</time>
      </trkpt>
      <trkpt lat="43.02657" lon="0.03402">
        <ele>1458</ele>
        <time>2019-02-09T10:47:47+01:00</time>
      </trkpt>
      <trkpt lat="43.02646" lon="0.0343">
        <ele>1464</ele>
        <time>2019-02-09T10:48:15+01:00</time>
      </trkpt>
      <trkpt lat="43.02637" lon="0.03459">
        <ele>1467</ele>
        <time>2019-02-09T10:48:43+01:00</time>
      </trkpt>
      <trkpt lat="43.02627" lon="0.03487">
        <ele>1472</ele>
        <time>2019-02-09T10:49:09+01:00</time>
      </trkpt>
      <trkpt lat="43.0261" lon="0.03508">
        <ele>1476</ele>
        <time>2019-02-09T10:49:50+01:00</time>
      </trkpt>
      <trkpt lat="43.02592" lon="0.03527">
        <ele>1482</ele>
        <time>2019-02-09T10:50:22+01:00</time>
      </trkpt>
      <trkpt lat="43.02578" lon="0.03551">
        <ele>1490</ele>
        <time>2019-02-09T10:51:13+01:00</time>
      </trkpt>
      <trkpt lat="43.02574" lon="0.03582">
        <ele>1493</ele>
        <time>2019-02-09T10:53:52+01:00</time>
      </trkpt>
      <trkpt lat="43.02569" lon="0.03612">
        <ele>1495</ele>
        <time>2019-02-09T10:54:15+01:00</time>
      </trkpt>
      <trkpt lat="43.02563" lon="0.03643">
        <ele>1497</ele>
        <time>2019-02-09T10:54:37+01:00</time>
      </trkpt>
      <trkpt lat="43.02557" lon="0.03673">
        <ele>1499</ele>
        <time>2019-02-09T10:54:56+01:00</time>
      </trkpt>
      <trkpt lat="43.02545" lon="0.03699">
        <ele>1502</ele>
        <time>2019-02-09T10:55:18+01:00</time>
      </trkpt>
      <trkpt lat="43.02538" lon="0.03729">
        <ele>1507</ele>
        <time>2019-02-09T10:55:43+01:00</time>
      </trkpt>
      <trkpt lat="43.02529" lon="0.03757">
        <ele>1513</ele>
        <time>2019-02-09T10:56:17+01:00</time>
      </trkpt>
      <trkpt lat="43.02518" lon="0.03784">
        <ele>1515</ele>
        <time>2019-02-09T10:57:09+01:00</time>
      </trkpt>
      <trkpt lat="43.02509" lon="0.03813">
        <ele>1518</ele>
        <time>2019-02-09T10:57:35+01:00</time>
      </trkpt>
      <trkpt lat="43.02498" lon="0.0384">
        <ele>1526</ele>
        <time>2019-02-09T10:58:02+01:00</time>
      </trkpt>
      <trkpt lat="43.02487" lon="0.03867">
        <ele>1529</ele>
        <time>2019-02-09T10:58:30+01:00</time>
      </trkpt>
      <trkpt lat="43.02476" lon="0.03895">
        <ele>1533</ele>
        <time>2019-02-09T10:59:06+01:00</time>
      </trkpt>
      <trkpt lat="43.02474" lon="0.03911">
        <ele>1487</ele>
        <time>2019-02-10T12:04:45+01:00</time>
      </trkpt>
      <trkpt lat="43.02473" lon="0.03926">
        <ele>1539</ele>
        <time>2019-02-09T10:59:38+01:00</time>
      </trkpt>
      <trkpt lat="43.02476" lon="0.03956">
        <ele>1541</ele>
        <time>2019-02-09T11:00:02+01:00</time>
      </trkpt>
      <trkpt lat="43.02468" lon="0.03986">
        <ele>1546</ele>
        <time>2019-02-09T11:02:10+01:00</time>
      </trkpt>
      <trkpt lat="43.02459" lon="0.04015">
        <ele>1546</ele>
        <time>2019-02-09T11:02:33+01:00</time>
      </trkpt>
      <trkpt lat="43.02451" lon="0.04045">
        <ele>1544</ele>
        <time>2019-02-09T11:02:54+01:00</time>
      </trkpt>
      <trkpt lat="43.02446" lon="0.04067">
        <ele>1490</ele>
        <time>2019-02-09T11:03:16+01:00</time>
      </trkpt>
      <trkpt lat="43.02443" lon="0.04089">
        <ele>1551</ele>
        <time>2019-02-09T11:03:34+01:00</time>
      </trkpt>
      <trkpt lat="43.02435" lon="0.0412">
        <ele>1551</ele>
        <time>2019-02-09T11:04:01+01:00</time>
      </trkpt>
      <trkpt lat="43.02422" lon="0.04145">
        <ele>1549</ele>
        <time>2019-02-09T11:04:19+01:00</time>
      </trkpt>
      <trkpt lat="43.02415" lon="0.04175">
        <ele>1550</ele>
        <time>2019-02-09T11:04:40+01:00</time>
      </trkpt>
      <trkpt lat="43.02406" lon="0.04205">
        <ele>1548</ele>
        <time>2019-02-09T11:05:00+01:00</time>
      </trkpt>
      <trkpt lat="43.02403" lon="0.04236">
        <ele>1550</ele>
        <time>2019-02-09T11:05:23+01:00</time>
      </trkpt>
      <trkpt lat="43.02388" lon="0.0426">
        <ele>1548</ele>
        <time>2019-02-09T11:06:05+01:00</time>
      </trkpt>
      <trkpt lat="43.0237" lon="0.04279">
        <ele>1544</ele>
        <time>2019-02-09T11:06:24+01:00</time>
      </trkpt>
      <trkpt lat="43.02362" lon="0.04308">
        <ele>1541</ele>
        <time>2019-02-09T11:07:07+01:00</time>
      </trkpt>
      <trkpt lat="43.02353" lon="0.04337">
        <ele>1538</ele>
        <time>2019-02-09T11:07:29+01:00</time>
      </trkpt>
      <trkpt lat="43.02345" lon="0.04367">
        <ele>1539</ele>
        <time>2019-02-09T11:07:52+01:00</time>
      </trkpt>
      <trkpt lat="43.02335" lon="0.04395">
        <ele>1538</ele>
        <time>2019-02-09T11:08:11+01:00</time>
      </trkpt>
      <trkpt lat="43.02325" lon="0.04424">
        <ele>1538</ele>
        <time>2019-02-09T11:08:31+01:00</time>
      </trkpt>
      <trkpt lat="43.02314" lon="0.0445">
        <ele>1543</ele>
        <time>2019-02-09T11:08:53+01:00</time>
      </trkpt>
      <trkpt lat="43.02299" lon="0.04474">
        <ele>1545</ele>
        <time>2019-02-09T11:09:16+01:00</time>
      </trkpt>
      <trkpt lat="43.02282" lon="0.04495">
        <ele>1548</ele>
        <time>2019-02-09T11:09:40+01:00</time>
      </trkpt>
      <trkpt lat="43.0226" lon="0.04507">
        <ele>1550</ele>
        <time>2019-02-09T11:10:22+01:00</time>
      </trkpt>
      <trkpt lat="43.02239" lon="0.04514">
        <ele>1554</ele>
        <time>2019-02-09T11:10:46+01:00</time>
      </trkpt>
      <trkpt lat="43.02216" lon="0.04522">
        <ele>1561</ele>
        <time>2019-02-09T11:11:27+01:00</time>
      </trkpt>
      <trkpt lat="43.02195" lon="0.04535">
        <ele>1559</ele>
        <time>2019-02-09T11:11:50+01:00</time>
      </trkpt>
      <trkpt lat="43.02183" lon="0.04562">
        <ele>1560</ele>
        <time>2019-02-09T11:12:41+01:00</time>
      </trkpt>
      <trkpt lat="43.02173" lon="0.0459">
        <ele>1561</ele>
        <time>2019-02-09T11:13:03+01:00</time>
      </trkpt>
      <trkpt lat="43.02165" lon="0.04619">
        <ele>1563</ele>
        <time>2019-02-09T11:13:51+01:00</time>
      </trkpt>
      <trkpt lat="43.02156" lon="0.04649">
        <ele>1564</ele>
        <time>2019-02-09T11:14:13+01:00</time>
      </trkpt>
      <trkpt lat="43.02146" lon="0.04677">
        <ele>1565</ele>
        <time>2019-02-09T11:14:34+01:00</time>
      </trkpt>
      <trkpt lat="43.0213" lon="0.04699">
        <ele>1567</ele>
        <time>2019-02-09T11:14:55+01:00</time>
      </trkpt>
      <trkpt lat="43.02113" lon="0.04722">
        <ele>1568</ele>
        <time>2019-02-09T11:15:20+01:00</time>
      </trkpt>
      <trkpt lat="43.02096" lon="0.04743">
        <ele>1574</ele>
        <time>2019-02-09T11:15:55+01:00</time>
      </trkpt>
      <trkpt lat="43.0208" lon="0.04765">
        <ele>1580</ele>
        <time>2019-02-09T11:16:25+01:00</time>
      </trkpt>
      <trkpt lat="43.02066" lon="0.0479">
        <ele>1587</ele>
        <time>2019-02-09T11:17:14+01:00</time>
      </trkpt>
      <trkpt lat="43.02052" lon="0.04815">
        <ele>1591</ele>
        <time>2019-02-09T11:17:45+01:00</time>
      </trkpt>
      <trkpt lat="43.02041" lon="0.04841">
        <ele>1598</ele>
        <time>2019-02-09T11:18:15+01:00</time>
      </trkpt>
      <trkpt lat="43.02025" lon="0.04863">
        <ele>1600</ele>
        <time>2019-02-09T11:19:42+01:00</time>
      </trkpt>
      <trkpt lat="43.02007" lon="0.04884">
        <ele>1603</ele>
        <time>2019-02-09T11:20:11+01:00</time>
      </trkpt>
      <trkpt lat="43.01991" lon="0.04906">
        <ele>1607</ele>
        <time>2019-02-09T11:20:37+01:00</time>
      </trkpt>
      <trkpt lat="43.01971" lon="0.04924">
        <ele>1613</ele>
        <time>2019-02-09T11:21:04+01:00</time>
      </trkpt>
      <trkpt lat="43.01953" lon="0.04943">
        <ele>1618</ele>
        <time>2019-02-09T11:21:38+01:00</time>
      </trkpt>
      <trkpt lat="43.01935" lon="0.04963">
        <ele>1622</ele>
        <time>2019-02-09T11:22:07+01:00</time>
      </trkpt>
      <trkpt lat="43.01916" lon="0.04978">
        <ele>1626</ele>
        <time>2019-02-09T11:22:34+01:00</time>
      </trkpt>
      <trkpt lat="43.01894" lon="0.04988">
        <ele>1634</ele>
        <time>2019-02-09T11:23:18+01:00</time>
      </trkpt>
      <trkpt lat="43.01874" lon="0.05005">
        <ele>1638</ele>
        <time>2019-02-09T11:23:51+01:00</time>
      </trkpt>
      <trkpt lat="43.01857" lon="0.05025">
        <ele>1642</ele>
        <time>2019-02-09T11:24:24+01:00</time>
      </trkpt>
      <trkpt lat="43.01838" lon="0.05044">
        <ele>1648</ele>
        <time>2019-02-09T11:24:55+01:00</time>
      </trkpt>
      <trkpt lat="43.0182" lon="0.05063">
        <ele>1651</ele>
        <time>2019-02-09T11:25:54+01:00</time>
      </trkpt>
      <trkpt lat="43.01802" lon="0.05083">
        <ele>1654</ele>
        <time>2019-02-09T11:26:24+01:00</time>
      </trkpt>
      <trkpt lat="43.01788" lon="0.05107">
        <ele>1659</ele>
        <time>2019-02-09T11:27:01+01:00</time>
      </trkpt>
      <trkpt lat="43.01768" lon="0.05122">
        <ele>1666</ele>
        <time>2019-02-09T11:27:33+01:00</time>
      </trkpt>
      <trkpt lat="43.01749" lon="0.05138">
        <ele>1671</ele>
        <time>2019-02-09T11:28:27+01:00</time>
      </trkpt>
      <trkpt lat="43.01726" lon="0.05139">
        <ele>1680</ele>
        <time>2019-02-09T11:29:01+01:00</time>
      </trkpt>
      <trkpt lat="43.01721" lon="0.05169">
        <ele>1682</ele>
        <time>2019-02-09T11:29:40+01:00</time>
      </trkpt>
      <trkpt lat="43.01724" lon="0.052">
        <ele>1688</ele>
        <time>2019-02-09T11:30:10+01:00</time>
      </trkpt>
      <trkpt lat="43.01706" lon="0.0522">
        <ele>1694</ele>
        <time>2019-02-09T11:31:29+01:00</time>
      </trkpt>
      <trkpt lat="43.01683" lon="0.05223">
        <ele>1696</ele>
        <time>2019-02-09T11:31:54+01:00</time>
      </trkpt>
      <trkpt lat="43.01661" lon="0.05221">
        <ele>1703</ele>
        <time>2019-02-09T11:32:20+01:00</time>
      </trkpt>
      <trkpt lat="43.01637" lon="0.05219">
        <ele>1709</ele>
        <time>2019-02-09T11:33:05+01:00</time>
      </trkpt>
      <trkpt lat="43.01615" lon="0.05223">
        <ele>1716</ele>
        <time>2019-02-09T11:34:28+01:00</time>
      </trkpt>
      <trkpt lat="43.01593" lon="0.05235">
        <ele>1722</ele>
        <time>2019-02-09T11:35:19+01:00</time>
      </trkpt>
      <trkpt lat="43.01577" lon="0.05256">
        <ele>1728</ele>
        <time>2019-02-09T11:36:03+01:00</time>
      </trkpt>
      <trkpt lat="43.01559" lon="0.05277">
        <ele>1737</ele>
        <time>2019-02-09T11:37:09+01:00</time>
      </trkpt>
      <trkpt lat="43.01544" lon="0.053">
        <ele>1743</ele>
        <time>2019-02-09T11:37:51+01:00</time>
      </trkpt>
      <trkpt lat="43.01555" lon="0.05291">
        <ele>1737</ele>
        <time>2019-02-09T12:32:02+01:00</time>
      </trkpt>
      <trkpt lat="43.0157" lon="0.05268">
        <ele>1734</ele>
        <time>2019-02-09T12:32:41+01:00</time>
      </trkpt>
      <trkpt lat="43.01588" lon="0.05248">
        <ele>1728</ele>
        <time>2019-02-09T12:33:06+01:00</time>
      </trkpt>
      <trkpt lat="43.01605" lon="0.05228">
        <ele>1716</ele>
        <time>2019-02-09T12:35:53+01:00</time>
      </trkpt>
      <trkpt lat="43.01628" lon="0.05223">
        <ele>1713</ele>
        <time>2019-02-09T12:36:14+01:00</time>
      </trkpt>
      <trkpt lat="43.01649" lon="0.05211">
        <ele>1704</ele>
        <time>2019-02-09T12:36:43+01:00</time>
      </trkpt>
      <trkpt lat="43.01671" lon="0.05198">
        <ele>1699</ele>
        <time>2019-02-09T12:37:06+01:00</time>
      </trkpt>
      <trkpt lat="43.01688" lon="0.05176">
        <ele>1692</ele>
        <time>2019-02-09T12:37:35+01:00</time>
      </trkpt>
      <trkpt lat="43.01706" lon="0.05157">
        <ele>1684</ele>
        <time>2019-02-09T12:38:50+01:00</time>
      </trkpt>
      <trkpt lat="43.01726" lon="0.0514">
        <ele>1682</ele>
        <time>2019-02-09T12:39:09+01:00</time>
      </trkpt>
      <trkpt lat="43.01749" lon="0.05137">
        <ele>1677</ele>
        <time>2019-02-09T12:39:43+01:00</time>
      </trkpt>
      <trkpt lat="43.01771" lon="0.05125">
        <ele>1671</ele>
        <time>2019-02-09T12:40:00+01:00</time>
      </trkpt>
      <trkpt lat="43.01789" lon="0.05107">
        <ele>1664</ele>
        <time>2019-02-09T12:40:18+01:00</time>
      </trkpt>
      <trkpt lat="43.01808" lon="0.05088">
        <ele>1660</ele>
        <time>2019-02-09T12:40:34+01:00</time>
      </trkpt>
      <trkpt lat="43.01827" lon="0.0507">
        <ele>1654</ele>
        <time>2019-02-09T12:40:59+01:00</time>
      </trkpt>
      <trkpt lat="43.01846" lon="0.05054">
        <ele>1651</ele>
        <time>2019-02-09T12:41:16+01:00</time>
      </trkpt>
      <trkpt lat="43.01864" lon="0.05034">
        <ele>1645</ele>
        <time>2019-02-09T12:41:52+01:00</time>
      </trkpt>
      <trkpt lat="43.01882" lon="0.05013">
        <ele>1641</ele>
        <time>2019-02-09T12:42:12+01:00</time>
      </trkpt>
      <trkpt lat="43.019" lon="0.04995">
        <ele>1637</ele>
        <time>2019-02-09T12:42:33+01:00</time>
      </trkpt>
      <trkpt lat="43.01919" lon="0.04978">
        <ele>1627</ele>
        <time>2019-02-09T12:44:27+01:00</time>
      </trkpt>
      <trkpt lat="43.01938" lon="0.04961">
        <ele>1623</ele>
        <time>2019-02-09T12:44:45+01:00</time>
      </trkpt>
      <trkpt lat="43.01958" lon="0.04944">
        <ele>1620</ele>
        <time>2019-02-09T12:45:18+01:00</time>
      </trkpt>
      <trkpt lat="43.01976" lon="0.04924">
        <ele>1615</ele>
        <time>2019-02-09T12:45:36+01:00</time>
      </trkpt>
      <trkpt lat="43.01994" lon="0.04904">
        <ele>1613</ele>
        <time>2019-02-09T12:45:53+01:00</time>
      </trkpt>
      <trkpt lat="43.02011" lon="0.04883">
        <ele>1608</ele>
        <time>2019-02-09T12:46:10+01:00</time>
      </trkpt>
      <trkpt lat="43.02029" lon="0.04861">
        <ele>1605</ele>
        <time>2019-02-09T12:46:28+01:00</time>
      </trkpt>
      <trkpt lat="43.02046" lon="0.0484">
        <ele>1601</ele>
        <time>2019-02-09T12:46:45+01:00</time>
      </trkpt>
      <trkpt lat="43.02063" lon="0.04819">
        <ele>1597</ele>
        <time>2019-02-09T12:47:02+01:00</time>
      </trkpt>
      <trkpt lat="43.02081" lon="0.048">
        <ele>1593</ele>
        <time>2019-02-09T12:47:20+01:00</time>
      </trkpt>
      <trkpt lat="43.021" lon="0.0478">
        <ele>1586</ele>
        <time>2019-02-09T12:47:39+01:00</time>
      </trkpt>
      <trkpt lat="43.02117" lon="0.04761">
        <ele>1582</ele>
        <time>2019-02-09T12:47:55+01:00</time>
      </trkpt>
      <trkpt lat="43.02133" lon="0.04738">
        <ele>1576</ele>
        <time>2019-02-09T12:48:12+01:00</time>
      </trkpt>
      <trkpt lat="43.0215" lon="0.04715">
        <ele>1573</ele>
        <time>2019-02-09T12:48:30+01:00</time>
      </trkpt>
      <trkpt lat="43.02164" lon="0.04692">
        <ele>1570</ele>
        <time>2019-02-09T12:48:47+01:00</time>
      </trkpt>
      <trkpt lat="43.02172" lon="0.04662">
        <ele>1569</ele>
        <time>2019-02-09T12:49:06+01:00</time>
      </trkpt>
      <trkpt lat="43.02184" lon="0.04635">
        <ele>1567</ele>
        <time>2019-02-09T12:49:24+01:00</time>
      </trkpt>
      <trkpt lat="43.02193" lon="0.04607">
        <ele>1565</ele>
        <time>2019-02-09T12:49:40+01:00</time>
      </trkpt>
      <trkpt lat="43.02201" lon="0.04577">
        <ele>1565</ele>
        <time>2019-02-09T12:49:58+01:00</time>
      </trkpt>
      <trkpt lat="43.02212" lon="0.04549">
        <ele>1565</ele>
        <time>2019-02-09T12:50:18+01:00</time>
      </trkpt>
      <trkpt lat="43.02229" lon="0.04526">
        <ele>1561</ele>
        <time>2019-02-09T12:50:52+01:00</time>
      </trkpt>
      <trkpt lat="43.02251" lon="0.04517">
        <ele>1560</ele>
        <time>2019-02-09T12:51:12+01:00</time>
      </trkpt>
      <trkpt lat="43.02272" lon="0.04504">
        <ele>1555</ele>
        <time>2019-02-09T12:51:33+01:00</time>
      </trkpt>
      <trkpt lat="43.02294" lon="0.04492">
        <ele>1551</ele>
        <time>2019-02-09T12:51:51+01:00</time>
      </trkpt>
      <trkpt lat="43.02313" lon="0.04476">
        <ele>1549</ele>
        <time>2019-02-09T12:52:09+01:00</time>
      </trkpt>
      <trkpt lat="43.02336" lon="0.04471">
        <ele>1546</ele>
        <time>2019-02-09T12:52:27+01:00</time>
      </trkpt>
      <trkpt lat="43.0234" lon="0.04502">
        <ele>1542</ele>
        <time>2019-02-09T12:53:04+01:00</time>
      </trkpt>
      <trkpt lat="43.02343" lon="0.04532">
        <ele>1539</ele>
        <time>2019-02-09T12:53:29+01:00</time>
      </trkpt>
      <trkpt lat="43.02357" lon="0.04557">
        <ele>1535</ele>
        <time>2019-02-09T12:53:51+01:00</time>
      </trkpt>
      <trkpt lat="43.02369" lon="0.04585">
        <ele>1532</ele>
        <time>2019-02-09T12:54:10+01:00</time>
      </trkpt>
      <trkpt lat="43.02377" lon="0.04613">
        <ele>1528</ele>
        <time>2019-02-09T12:54:29+01:00</time>
      </trkpt>
      <trkpt lat="43.02387" lon="0.04585">
        <ele>1519</ele>
        <time>2019-02-09T12:55:03+01:00</time>
      </trkpt>
      <trkpt lat="43.02399" lon="0.04611">
        <ele>1516</ele>
        <time>2019-02-09T12:55:31+01:00</time>
      </trkpt>
      <trkpt lat="43.02403" lon="0.04642">
        <ele>1513</ele>
        <time>2019-02-09T12:55:50+01:00</time>
      </trkpt>
      <trkpt lat="43.02418" lon="0.04618">
        <ele>1504</ele>
        <time>2019-02-09T12:56:24+01:00</time>
      </trkpt>
      <trkpt lat="43.02421" lon="0.04585">
        <ele>1499</ele>
        <time>2019-02-09T12:56:50+01:00</time>
      </trkpt>
      <trkpt lat="43.02416" lon="0.04554">
        <ele>1498</ele>
        <time>2019-02-09T12:57:11+01:00</time>
      </trkpt>
      <trkpt lat="43.02436" lon="0.04569">
        <ele>1493</ele>
        <time>2019-02-09T12:57:55+01:00</time>
      </trkpt>
      <trkpt lat="43.02448" lon="0.04596">
        <ele>1490</ele>
        <time>2019-02-09T12:58:21+01:00</time>
      </trkpt>
      <trkpt lat="43.02456" lon="0.04625">
        <ele>1489</ele>
        <time>2019-02-09T12:58:41+01:00</time>
      </trkpt>
      <trkpt lat="43.02455" lon="0.04658">
        <ele>1483</ele>
        <time>2019-02-09T12:59:03+01:00</time>
      </trkpt>
      <trkpt lat="43.02474" lon="0.04641">
        <ele>1474</ele>
        <time>2019-02-09T12:59:33+01:00</time>
      </trkpt>
      <trkpt lat="43.02487" lon="0.04667">
        <ele>1468</ele>
        <time>2019-02-09T13:00:24+01:00</time>
      </trkpt>
      <trkpt lat="43.02504" lon="0.04646">
        <ele>1462</ele>
        <time>2019-02-09T13:00:46+01:00</time>
      </trkpt>
      <trkpt lat="43.02507" lon="0.04615">
        <ele>1458</ele>
        <time>2019-02-09T13:01:07+01:00</time>
      </trkpt>
      <trkpt lat="43.02523" lon="0.04638">
        <ele>1456</ele>
        <time>2019-02-09T13:01:48+01:00</time>
      </trkpt>
      <trkpt lat="43.02522" lon="0.04669">
        <ele>1451</ele>
        <time>2019-02-09T13:02:07+01:00</time>
      </trkpt>
      <trkpt lat="43.02544" lon="0.04661">
        <ele>1442</ele>
        <time>2019-02-09T13:02:43+01:00</time>
      </trkpt>
      <trkpt lat="43.02555" lon="0.04633">
        <ele>1439</ele>
        <time>2019-02-09T13:03:02+01:00</time>
      </trkpt>
      <trkpt lat="43.02563" lon="0.04603">
        <ele>1438</ele>
        <time>2019-02-09T13:03:21+01:00</time>
      </trkpt>
      <trkpt lat="43.02583" lon="0.0459">
        <ele>1433</ele>
        <time>2019-02-09T13:04:10+01:00</time>
      </trkpt>
      <trkpt lat="43.02604" lon="0.04604">
        <ele>1427</ele>
        <time>2019-02-09T13:04:30+01:00</time>
      </trkpt>
      <trkpt lat="43.02624" lon="0.0462">
        <ele>1418</ele>
        <time>2019-02-09T13:04:57+01:00</time>
      </trkpt>
      <trkpt lat="43.02634" lon="0.04648">
        <ele>1411</ele>
        <time>2019-02-09T13:05:18+01:00</time>
      </trkpt>
      <trkpt lat="43.02644" lon="0.04676">
        <ele>1402</ele>
        <time>2019-02-09T13:05:38+01:00</time>
      </trkpt>
      <trkpt lat="43.02666" lon="0.04684">
        <ele>1397</ele>
        <time>2019-02-09T13:05:59+01:00</time>
      </trkpt>
      <trkpt lat="43.02683" lon="0.04704">
        <ele>1391</ele>
        <time>2019-02-09T13:06:25+01:00</time>
      </trkpt>
      <trkpt lat="43.02702" lon="0.04724">
        <ele>1383</ele>
        <time>2019-02-09T13:06:46+01:00</time>
      </trkpt>
      <trkpt lat="43.02724" lon="0.04734">
        <ele>1370</ele>
        <time>2019-02-09T13:09:32+01:00</time>
      </trkpt>
      <trkpt lat="43.02747" lon="0.04742">
        <ele>1366</ele>
        <time>2019-02-09T13:09:52+01:00</time>
      </trkpt>
      <trkpt lat="43.02771" lon="0.04745">
        <ele>1361</ele>
        <time>2019-02-09T13:10:10+01:00</time>
      </trkpt>
      <trkpt lat="43.02793" lon="0.04758">
        <ele>1355</ele>
        <time>2019-02-09T13:10:43+01:00</time>
      </trkpt>
      <trkpt lat="43.02816" lon="0.04759">
        <ele>1352</ele>
        <time>2019-02-09T13:11:03+01:00</time>
      </trkpt>
      <trkpt lat="43.02837" lon="0.04744">
        <ele>1348</ele>
        <time>2019-02-09T13:11:19+01:00</time>
      </trkpt>
      <trkpt lat="43.02858" lon="0.04734">
        <ele>1347</ele>
        <time>2019-02-09T13:11:34+01:00</time>
      </trkpt>
      <trkpt lat="43.02881" lon="0.04733">
        <ele>1345</ele>
        <time>2019-02-09T13:11:49+01:00</time>
      </trkpt>
      <trkpt lat="43.02904" lon="0.04732">
        <ele>1327</ele>
        <time>2019-02-09T13:12:27+01:00</time>
      </trkpt>
      <trkpt lat="43.02928" lon="0.04737">
        <ele>1336</ele>
        <time>2019-02-09T13:12:58+01:00</time>
      </trkpt>
      <trkpt lat="43.02951" lon="0.04745">
        <ele>1334</ele>
        <time>2019-02-09T13:13:18+01:00</time>
      </trkpt>
      <trkpt lat="43.02972" lon="0.04753">
        <ele>1331</ele>
        <time>2019-02-09T13:13:35+01:00</time>
      </trkpt>
      <trkpt lat="43.02995" lon="0.04758">
        <ele>1326</ele>
        <time>2019-02-09T13:13:52+01:00</time>
      </trkpt>
      <trkpt lat="43.03019" lon="0.04759">
        <ele>1322</ele>
        <time>2019-02-09T13:14:08+01:00</time>
      </trkpt>
      <trkpt lat="43.03042" lon="0.04753">
        <ele>1317</ele>
        <time>2019-02-09T13:14:24+01:00</time>
      </trkpt>
      <trkpt lat="43.03065" lon="0.04747">
        <ele>1310</ele>
        <time>2019-02-09T13:15:09+01:00</time>
      </trkpt>
      <trkpt lat="43.03089" lon="0.04744">
        <ele>1302</ele>
        <time>2019-02-09T13:15:28+01:00</time>
      </trkpt>
      <trkpt lat="43.03112" lon="0.04739">
        <ele>1299</ele>
        <time>2019-02-09T13:15:44+01:00</time>
      </trkpt>
      <trkpt lat="43.03134" lon="0.04729">
        <ele>1297</ele>
        <time>2019-02-09T13:16:02+01:00</time>
      </trkpt>
      <trkpt lat="43.03156" lon="0.04718">
        <ele>1295</ele>
        <time>2019-02-09T13:16:18+01:00</time>
      </trkpt>
      <trkpt lat="43.03176" lon="0.04706">
        <ele>1294</ele>
        <time>2019-02-09T13:16:32+01:00</time>
      </trkpt>
      <trkpt lat="43.03196" lon="0.0469">
        <ele>1291</ele>
        <time>2019-02-09T13:16:48+01:00</time>
      </trkpt>
      <trkpt lat="43.03217" lon="0.04678">
        <ele>1289</ele>
        <time>2019-02-09T13:17:26+01:00</time>
      </trkpt>
      <trkpt lat="43.03237" lon="0.04662">
        <ele>1289</ele>
        <time>2019-02-09T13:17:45+01:00</time>
      </trkpt>
      <trkpt lat="43.03259" lon="0.04655">
        <ele>1286</ele>
        <time>2019-02-09T13:18:03+01:00</time>
      </trkpt>
      <trkpt lat="43.03281" lon="0.04645">
        <ele>1282</ele>
        <time>2019-02-09T13:18:21+01:00</time>
      </trkpt>
      <trkpt lat="43.03302" lon="0.04631">
        <ele>1280</ele>
        <time>2019-02-09T13:18:44+01:00</time>
      </trkpt>
      <trkpt lat="43.03324" lon="0.04622">
        <ele>1278</ele>
        <time>2019-02-09T13:19:03+01:00</time>
      </trkpt>
      <trkpt lat="43.03347" lon="0.04616">
        <ele>1277</ele>
        <time>2019-02-09T13:19:26+01:00</time>
      </trkpt>
      <trkpt lat="43.03371" lon="0.04618">
        <ele>1275</ele>
        <time>2019-02-09T13:19:43+01:00</time>
      </trkpt>
      <trkpt lat="43.03393" lon="0.04608">
        <ele>1274</ele>
        <time>2019-02-09T13:20:00+01:00</time>
      </trkpt>
      <trkpt lat="43.03416" lon="0.04601">
        <ele>1272</ele>
        <time>2019-02-09T13:20:18+01:00</time>
      </trkpt>
      <trkpt lat="43.03437" lon="0.04588">
        <ele>1270</ele>
        <time>2019-02-09T13:20:37+01:00</time>
      </trkpt>
      <trkpt lat="43.03451" lon="0.04561">
        <ele>1266</ele>
        <time>2019-02-09T13:21:04+01:00</time>
      </trkpt>
      <trkpt lat="43.03462" lon="0.04533">
        <ele>1264</ele>
        <time>2019-02-09T13:21:21+01:00</time>
      </trkpt>
      <trkpt lat="43.03482" lon="0.0455">
        <ele>1260</ele>
        <time>2019-02-09T13:22:02+01:00</time>
      </trkpt>
      <trkpt lat="43.03488" lon="0.0458">
        <ele>1259</ele>
        <time>2019-02-09T13:22:22+01:00</time>
      </trkpt>
      <trkpt lat="43.03492" lon="0.04611">
        <ele>1257</ele>
        <time>2019-02-09T13:22:39+01:00</time>
      </trkpt>
      <trkpt lat="43.035" lon="0.04641">
        <ele>1254</ele>
        <time>2019-02-09T13:22:58+01:00</time>
      </trkpt>
      <trkpt lat="43.03521" lon="0.0463">
        <ele>1247</ele>
        <time>2019-02-09T13:23:25+01:00</time>
      </trkpt>
      <trkpt lat="43.03529" lon="0.046">
        <ele>1243</ele>
        <time>2019-02-09T13:23:42+01:00</time>
      </trkpt>
      <trkpt lat="43.03552" lon="0.04595">
        <ele>1237</ele>
        <time>2019-02-09T13:24:06+01:00</time>
      </trkpt>
      <trkpt lat="43.03573" lon="0.04606">
        <ele>1229</ele>
        <time>2019-02-09T13:25:40+01:00</time>
      </trkpt>
      <trkpt lat="43.03596" lon="0.04606">
        <ele>1221</ele>
        <time>2019-02-09T13:26:00+01:00</time>
      </trkpt>
      <trkpt lat="43.03604" lon="0.04577">
        <ele>1219</ele>
        <time>2019-02-09T13:26:19+01:00</time>
      </trkpt>
      <trkpt lat="43.03607" lon="0.04545">
        <ele>1215</ele>
        <time>2019-02-09T13:26:38+01:00</time>
      </trkpt>
      <trkpt lat="43.03628" lon="0.04533">
        <ele>1212</ele>
        <time>2019-02-09T13:26:57+01:00</time>
      </trkpt>
      <trkpt lat="43.03647" lon="0.04516">
        <ele>1204</ele>
        <time>2019-02-09T13:27:17+01:00</time>
      </trkpt>
      <trkpt lat="43.03667" lon="0.04501">
        <ele>1196</ele>
        <time>2019-02-09T13:27:38+01:00</time>
      </trkpt>
      <trkpt lat="43.03683" lon="0.04478">
        <ele>1189</ele>
        <time>2019-02-09T13:27:59+01:00</time>
      </trkpt>
      <trkpt lat="43.03705" lon="0.04476">
        <ele>1177</ele>
        <time>2019-02-09T13:28:34+01:00</time>
      </trkpt>
      <trkpt lat="43.03724" lon="0.04497">
        <ele>1171</ele>
        <time>2019-02-09T13:28:54+01:00</time>
      </trkpt>
      <trkpt lat="43.03736" lon="0.04523">
        <ele>1167</ele>
        <time>2019-02-09T13:29:12+01:00</time>
      </trkpt>
      <trkpt lat="43.0375" lon="0.04549">
        <ele>1162</ele>
        <time>2019-02-09T13:29:31+01:00</time>
      </trkpt>
      <trkpt lat="43.03772" lon="0.04559">
        <ele>1156</ele>
        <time>2019-02-09T13:29:52+01:00</time>
      </trkpt>
      <trkpt lat="43.03793" lon="0.04545">
        <ele>1152</ele>
        <time>2019-02-09T13:30:12+01:00</time>
      </trkpt>
      <trkpt lat="43.03802" lon="0.04515">
        <ele>1149</ele>
        <time>2019-02-09T13:30:32+01:00</time>
      </trkpt>
      <trkpt lat="43.03809" lon="0.04486">
        <ele>1149</ele>
        <time>2019-02-09T13:30:48+01:00</time>
      </trkpt>
      <trkpt lat="43.038" lon="0.04456">
        <ele>1145</ele>
        <time>2019-02-09T13:31:03+01:00</time>
      </trkpt>
      <trkpt lat="43.03791" lon="0.04428">
        <ele>1141</ele>
        <time>2019-02-09T13:31:18+01:00</time>
      </trkpt>
      <trkpt lat="43.03782" lon="0.04399">
        <ele>1137</ele>
        <time>2019-02-09T13:31:32+01:00</time>
      </trkpt>
      <trkpt lat="43.03771" lon="0.0437">
        <ele>1137</ele>
        <time>2019-02-09T13:31:48+01:00</time>
      </trkpt>
      <trkpt lat="43.03761" lon="0.04342">
        <ele>1134</ele>
        <time>2019-02-09T13:32:03+01:00</time>
      </trkpt>
      <trkpt lat="43.03747" lon="0.04316">
        <ele>1132</ele>
        <time>2019-02-09T13:32:18+01:00</time>
      </trkpt>
      <trkpt lat="43.03769" lon="0.04324">
        <ele>1126</ele>
        <time>2019-02-09T13:32:48+01:00</time>
      </trkpt>
      <trkpt lat="43.03791" lon="0.04334">
        <ele>1126</ele>
        <time>2019-02-09T13:33:04+01:00</time>
      </trkpt>
      <trkpt lat="43.0381" lon="0.04353">
        <ele>1122</ele>
        <time>2019-02-09T13:33:21+01:00</time>
      </trkpt>
      <trkpt lat="43.03828" lon="0.04373">
        <ele>1121</ele>
        <time>2019-02-09T13:33:37+01:00</time>
      </trkpt>
      <trkpt lat="43.03846" lon="0.04394">
        <ele>1119</ele>
        <time>2019-02-09T13:33:53+01:00</time>
      </trkpt>
      <trkpt lat="43.03866" lon="0.04412">
        <ele>1114</ele>
        <time>2019-02-09T13:34:11+01:00</time>
      </trkpt>
      <trkpt lat="43.03888" lon="0.04423">
        <ele>1110</ele>
        <time>2019-02-09T13:34:29+01:00</time>
      </trkpt>
      <trkpt lat="43.03909" lon="0.04436">
        <ele>1108</ele>
        <time>2019-02-09T13:34:45+01:00</time>
      </trkpt>
      <trkpt lat="43.03928" lon="0.04451">
        <ele>1105</ele>
        <time>2019-02-09T13:35:00+01:00</time>
      </trkpt>
      <trkpt lat="43.03949" lon="0.04464">
        <ele>1102</ele>
        <time>2019-02-09T13:35:16+01:00</time>
      </trkpt>
      <trkpt lat="43.03968" lon="0.04481">
        <ele>1100</ele>
        <time>2019-02-09T13:36:01+01:00</time>
      </trkpt>
      <trkpt lat="43.03985" lon="0.04503">
        <ele>1097</ele>
        <time>2019-02-09T13:36:17+01:00</time>
      </trkpt>
      <trkpt lat="43.03998" lon="0.04529">
        <ele>1095</ele>
        <time>2019-02-09T13:36:32+01:00</time>
      </trkpt>
      <trkpt lat="43.0401" lon="0.04556">
        <ele>1092</ele>
        <time>2019-02-09T13:36:48+01:00</time>
      </trkpt>
      <trkpt lat="43.04022" lon="0.04584">
        <ele>1090</ele>
        <time>2019-02-09T13:37:07+01:00</time>
      </trkpt>
      <trkpt lat="43.04038" lon="0.04562">
        <ele>1086</ele>
        <time>2019-02-09T13:37:43+01:00</time>
      </trkpt>
      <trkpt lat="43.04041" lon="0.0453">
        <ele>1082</ele>
        <time>2019-02-09T13:37:58+01:00</time>
      </trkpt>
      <trkpt lat="43.04046" lon="0.04499">
        <ele>1077</ele>
        <time>2019-02-09T13:38:14+01:00</time>
      </trkpt>
      <trkpt lat="43.04046" lon="0.04469">
        <ele>1072</ele>
        <time>2019-02-09T13:38:30+01:00</time>
      </trkpt>
      <trkpt lat="43.04036" lon="0.0444">
        <ele>1071</ele>
        <time>2019-02-09T13:38:45+01:00</time>
      </trkpt>
      <trkpt lat="43.04028" lon="0.0441">
        <ele>1069</ele>
        <time>2019-02-09T13:39:01+01:00</time>
      </trkpt>
      <trkpt lat="43.04024" lon="0.04379">
        <ele>1067</ele>
        <time>2019-02-09T13:39:16+01:00</time>
      </trkpt>
      <trkpt lat="43.04015" lon="0.04349">
        <ele>1065</ele>
        <time>2019-02-09T13:39:33+01:00</time>
      </trkpt>
      <trkpt lat="43.04006" lon="0.04319">
        <ele>1062</ele>
        <time>2019-02-09T13:39:49+01:00</time>
      </trkpt>
      <trkpt lat="43.04" lon="0.04289">
        <ele>1060</ele>
        <time>2019-02-09T13:40:04+01:00</time>
      </trkpt>
      <trkpt lat="43.03994" lon="0.04259">
        <ele>1058</ele>
        <time>2019-02-09T13:40:19+01:00</time>
      </trkpt>
      <trkpt lat="43.03987" lon="0.04227">
        <ele>1057</ele>
        <time>2019-02-09T13:40:35+01:00</time>
      </trkpt>
      <trkpt lat="43.03983" lon="0.04196">
        <ele>1056</ele>
        <time>2019-02-09T13:40:50+01:00</time>
      </trkpt>
      <trkpt lat="43.03983" lon="0.04164">
        <ele>1051</ele>
        <time>2019-02-09T13:41:05+01:00</time>
      </trkpt>
      <trkpt lat="43.03977" lon="0.04133">
        <ele>1048</ele>
        <time>2019-02-09T13:41:21+01:00</time>
      </trkpt>
      <trkpt lat="43.03994" lon="0.04157">
        <ele>1046</ele>
        <time>2019-02-09T13:42:02+01:00</time>
      </trkpt>
      <trkpt lat="43.0401" lon="0.04179">
        <ele>1044</ele>
        <time>2019-02-09T13:42:16+01:00</time>
      </trkpt>
      <trkpt lat="43.04026" lon="0.04202">
        <ele>1041</ele>
        <time>2019-02-09T13:42:30+01:00</time>
      </trkpt>
      <trkpt lat="43.04046" lon="0.04218">
        <ele>1040</ele>
        <time>2019-02-09T13:42:45+01:00</time>
      </trkpt>
      <trkpt lat="43.04066" lon="0.04235">
        <ele>1038</ele>
        <time>2019-02-09T13:43:00+01:00</time>
      </trkpt>
      <trkpt lat="43.04087" lon="0.0425">
        <ele>1037</ele>
        <time>2019-02-09T13:43:15+01:00</time>
      </trkpt>
      <trkpt lat="43.04106" lon="0.04269">
        <ele>1034</ele>
        <time>2019-02-09T13:43:30+01:00</time>
      </trkpt>
      <trkpt lat="43.04126" lon="0.04286">
        <ele>1031</ele>
        <time>2019-02-09T13:43:45+01:00</time>
      </trkpt>
      <trkpt lat="43.04144" lon="0.04305">
        <ele>1029</ele>
        <time>2019-02-09T13:44:00+01:00</time>
      </trkpt>
      <trkpt lat="43.04158" lon="0.0433">
        <ele>1025</ele>
        <time>2019-02-09T13:44:15+01:00</time>
      </trkpt>
      <trkpt lat="43.04171" lon="0.04356">
        <ele>1024</ele>
        <time>2019-02-09T13:44:29+01:00</time>
      </trkpt>
      <trkpt lat="43.04187" lon="0.04378">
        <ele>1022</ele>
        <time>2019-02-09T13:44:44+01:00</time>
      </trkpt>
      <trkpt lat="43.04204" lon="0.044">
        <ele>1021</ele>
        <time>2019-02-09T13:44:59+01:00</time>
      </trkpt>
      <trkpt lat="43.04223" lon="0.0442">
        <ele>1018</ele>
        <time>2019-02-09T13:45:14+01:00</time>
      </trkpt>
      <trkpt lat="43.04239" lon="0.04444">
        <ele>1015</ele>
        <time>2019-02-09T13:45:29+01:00</time>
      </trkpt>
      <trkpt lat="43.04256" lon="0.04465">
        <ele>1010</ele>
        <time>2019-02-09T13:45:43+01:00</time>
      </trkpt>
      <trkpt lat="43.04273" lon="0.04487">
        <ele>1008</ele>
        <time>2019-02-09T13:45:58+01:00</time>
      </trkpt>
      <trkpt lat="43.04288" lon="0.0451">
        <ele>1004</ele>
        <time>2019-02-09T13:46:15+01:00</time>
      </trkpt>
      <trkpt lat="43.043" lon="0.04538">
        <ele>1003</ele>
        <time>2019-02-09T13:46:31+01:00</time>
      </trkpt>
    </trkseg>
  </trk>
</gpx>